Time;durP1;ratioP1;P1;durP2;ratioP2;P2;SDS_P1;SDS_P2;PMS_P1;PMS_P2;Temp;Humidity;BMP_temperature;BMP_pressure;BME280_temperature;BME280_humidity;BME280_pressure;Samples;Min_cycle;Max_cycle;Signal;HPM_P1;HPM_P2
2022/11/13 00:00:29;;;;;;;;;;;15.80;95.40;;;;;;5096833;28;19923;-65
2022/11/13 00:02:54;;;;;;;;;;;15.90;95.40;;;;;;5116066;28;19923;-65
2022/11/13 00:05:21;;;;;;;;;;;15.80;95.20;;;;;;5115954;28;19924;-65
2022/11/13 00:07:47;;;;;;;;;;;15.70;95.10;;;;;;5113636;28;19989;-65
2022/11/13 00:10:13;;;;;;;;;;;15.80;95.20;;;;;;5114387;28;19971;-65
2022/11/13 00:12:38;;;;;;;;;;;15.70;95.10;;;;;;5114318;28;19930;-65
2022/11/13 00:15:04;;;;;;;;;;;15.70;95.20;;;;;;5114293;28;19939;-65
2022/11/13 00:17:30;;;;;;;;;;;15.90;95.10;;;;;;5114763;28;19924;-65
2022/11/13 00:19:55;;;;;;;;;;;15.50;95.00;;;;;;5116298;28;20311;-65
2022/11/13 00:22:21;;;;;;;;;;;15.60;95.10;;;;;;5115269;28;19990;-65
2022/11/13 00:24:47;;;;;;;;;;;15.50;95.00;;;;;;5115700;28;19930;-65
2022/11/13 00:27:12;;;;;;;;;;;15.60;95.10;;;;;;5112256;28;19927;-65
2022/11/13 00:29:38;;;;;;;;;;;15.40;95.00;;;;;;5113879;28;19959;-65
2022/11/13 00:32:04;;;;;;;;;;;15.50;94.90;;;;;;5114252;28;19924;-65
2022/11/13 00:34:30;;;;;;;;;;;15.60;94.90;;;;;;5113868;28;19924;-65
2022/11/13 00:36:55;;;;;;;;;;;15.90;94.90;;;;;;5112661;28;20308;-65
2022/11/13 00:39:21;;;;;;;;;;;15.70;94.90;;;;;;5113822;28;19924;-65
2022/11/13 00:41:47;;;;;;;;;;;15.50;94.90;;;;;;5112685;28;19947;-65
2022/11/13 00:44:12;;;;;;;;;;;15.70;94.80;;;;;;5114487;28;19924;-65
2022/11/13 00:46:38;;;;;;;;;;;15.40;94.60;;;;;;5113645;28;19930;-65
2022/11/13 00:49:04;;;;;;;;;;;15.50;94.60;;;;;;5113179;28;19972;-65
2022/11/13 00:51:29;;;;;;;;;;;15.70;94.60;;;;;;5113200;28;19923;-65
2022/11/13 00:53:55;;;;;;;;;;;15.50;94.60;;;;;;5096612;28;20384;-65
2022/11/13 00:56:21;;;;;;;;;;;15.60;94.70;;;;;;5113633;28;19970;-66
2022/11/13 00:58:47;;;;;;;;;;;15.70;94.70;;;;;;5095400;28;19920;-65
2022/11/13 01:01:13;;;;;;;;;;;15.50;94.60;;;;;;5113716;28;19931;-65
2022/11/13 01:03:39;;;;;;;;;;;15.30;94.60;;;;;;5113406;28;19924;-65
2022/11/13 01:06:12;;;;;;;;;;;15.60;94.70;;;;;;5113407;28;19935;-65
2022/11/13 01:08:38;;;;;;;;;;;15.60;94.60;;;;;;5093748;28;19923;-65
2022/11/13 01:11:22;;;;;;;;;;;15.30;94.40;;;;;;5112588;28;19924;-65
2022/11/13 01:13:48;;;;;;;;;;;15.70;94.50;;;;;;5112248;28;19924;-65
2022/11/13 01:16:14;;;;;;;;;;;15.50;94.50;;;;;;5096056;28;20266;-65
2022/11/13 01:18:41;;;;;;;;;;;15.60;94.50;;;;;;5078634;28;19939;-65
2022/11/13 01:21:08;;;;;;;;;;;15.40;94.40;;;;;;5113330;28;19924;-65
2022/11/13 01:23:34;;;;;;;;;;;15.50;94.50;;;;;;5112990;28;19924;-65
2022/11/13 01:26:03;;;;;;;;;;;15.60;94.40;;;;;;5113128;28;19946;-64
2022/11/13 01:28:29;;;;;;;;;;;15.50;94.50;;;;;;5112320;28;19935;-64
2022/11/13 01:30:54;;;;;;;;;;;15.60;94.50;;;;;;5113357;28;20392;-64
2022/11/13 01:33:20;;;;;;;;;;;15.40;94.50;;;;;;5113311;28;20316;-65
2022/11/13 01:35:46;;;;;;;;;;;15.30;94.50;;;;;;5113102;28;19930;-65
2022/11/13 01:38:11;;;;;;;;;;;15.40;94.50;;;;;;5112839;28;19923;-69
2022/11/13 01:40:43;;;;;;;;;;;15.20;94.50;;;;;;5111973;28;20020;-71
2022/11/13 01:43:25;;;;;;;;;;;15.40;94.50;;;;;;5111693;28;19998;-70
2022/11/13 01:45:57;;;;;;;;;;;15.30;94.50;;;;;;5112633;28;20266;-64
2022/11/13 01:48:23;;;;;;;;;;;15.60;94.40;;;;;;5113160;28;19924;-65
2022/11/13 01:50:49;;;;;;;;;;;15.40;94.40;;;;;;5112148;28;20330;-65
2022/11/13 01:53:14;;;;;;;;;;;15.50;94.50;;;;;;5114410;28;19924;-65
2022/11/13 01:55:40;;;;;;;;;;;15.40;94.30;;;;;;5112978;28;19919;-69
2022/11/13 01:58:06;;;;;;;;;;;15.50;94.30;;;;;;5115682;28;20326;-72
2022/11/13 02:00:32;;;;;;;;;;;15.40;94.20;;;;;;5115274;28;20392;-71
2022/11/13 02:02:57;;;;;;;;;;;15.50;94.20;;;;;;5115949;28;19977;-70
2022/11/13 02:05:23;;;;;;;;;;;15.30;94.20;;;;;;5116939;28;19969;-70
2022/11/13 02:07:49;;;;;;;;;;;15.50;94.30;;;;;;5099826;28;19978;-68
2022/11/13 02:10:14;;;;;;;;;;;15.20;94.10;;;;;;5116409;28;19923;-68
2022/11/13 02:12:41;;;;;;;;;;;15.20;94.10;;;;;;5115706;28;19924;-71
2022/11/13 02:15:07;;;;;;;;;;;15.40;94.20;;;;;;5116557;28;20019;-67
2022/11/13 02:17:34;;;;;;;;;;;15.20;94.10;;;;;;5115869;28;19979;-64
2022/11/13 02:20:00;;;;;;;;;;;15.40;94.10;;;;;;5098855;28;20012;-65
2022/11/13 02:22:29;;;;;;;;;;;15.20;94.00;;;;;;5089669;28;19935;-65
2022/11/13 02:24:55;;;;;;;;;;;15.20;94.00;;;;;;5096335;28;19928;-65
2022/11/13 02:27:27;;;;;;;;;;;15.60;94.10;;;;;;5096364;28;19999;-65
2022/11/13 02:29:52;;;;;;;;;;;15.20;94.00;;;;;;5095844;28;19931;-64
2022/11/13 02:32:18;;;;;;;;;;;15.30;94.10;;;;;;5113987;28;19927;-65
2022/11/13 02:34:43;;;;;;;;;;;15.20;94.00;;;;;;5116299;28;19927;-68
2022/11/13 02:37:09;;;;;;;;;;;15.30;94.00;;;;;;5099221;28;19928;-70
2022/11/13 02:39:35;;;;;;;;;;;15.30;94.00;;;;;;5117221;28;19973;-66
2022/11/13 02:42:01;;;;;;;;;;;15.20;93.90;;;;;;5116817;28;20432;-66
2022/11/13 02:44:26;;;;;;;;;;;15.50;94.00;;;;;;5116401;28;20377;-67
2022/11/13 02:46:52;;;;;;;;;;;15.50;94.00;;;;;;5099146;28;20030;-68
2022/11/13 02:49:18;;;;;;;;;;;15.50;93.90;;;;;;5116186;28;19978;-65
2022/11/13 02:51:43;;;;;;;;;;;15.30;93.90;;;;;;5114987;28;20002;-64
2022/11/13 02:54:09;;;;;;;;;;;15.40;93.90;;;;;;5116260;28;20281;-65
2022/11/13 02:56:35;;;;;;;;;;;15.30;93.80;;;;;;5098394;28;19927;-65
2022/11/13 02:59:00;;;;;;;;;;;15.40;93.90;;;;;;5097254;28;20434;-65
2022/11/13 03:01:26;;;;;;;;;;;15.60;93.90;;;;;;5132069;27;19924;-65
2022/11/13 03:03:52;;;;;;;;;;;15.10;93.70;;;;;;5116240;28;19923;-65
2022/11/13 03:06:17;;;;;;;;;;;15.10;93.60;;;;;;5117100;28;20395;-65
2022/11/13 03:08:43;;;;;;;;;;;15.30;93.70;;;;;;5116087;28;20327;-65
2022/11/13 03:11:09;;;;;;;;;;;15.20;93.60;;;;;;5115363;28;19930;-64
2022/11/13 03:13:35;;;;;;;;;;;15.20;93.60;;;;;;5116835;28;20010;-65
2022/11/13 03:16:07;;;;;;;;;;;15.20;93.80;;;;;;5115901;28;19976;-65
2022/11/13 03:18:33;;;;;;;;;;;15.30;93.80;;;;;;5116312;28;19976;-65
2022/11/13 03:21:04;;;;;;;;;;;14.90;93.60;;;;;;5115437;28;19923;-64
2022/11/13 03:23:29;;;;;;;;;;;15.30;93.70;;;;;;5081596;28;20278;-65
2022/11/13 03:25:55;;;;;;;;;;;15.40;93.80;;;;;;5116886;28;19953;-65
2022/11/13 03:28:21;;;;;;;;;;;15.10;93.80;;;;;;5116772;28;19930;-65
2022/11/13 03:30:46;;;;;;;;;;;15.20;93.80;;;;;;5114285;28;19923;-65
2022/11/13 03:33:12;;;;;;;;;;;;;;;;;;5116318;28;19930;-65
2022/11/13 03:35:38;;;;;;;;;;;15.30;93.90;;;;;;5115117;28;20449;-67
2022/11/13 03:38:04;;;;;;;;;;;15.20;93.90;;;;;;5115064;28;19998;-65
2022/11/13 03:40:29;;;;;;;;;;;15.10;93.90;;;;;;5115907;28;20365;-66
2022/11/13 03:42:55;;;;;;;;;;;15.00;93.90;;;;;;5115534;28;19928;-68
2022/11/13 03:45:21;;;;;;;;;;;15.20;93.90;;;;;;5116501;28;20053;-65
2022/11/13 03:47:47;;;;;;;;;;;15.20;93.80;;;;;;5115189;28;20369;-64
2022/11/13 03:50:13;;;;;;;;;;;15.20;93.90;;;;;;5115201;28;20056;-65
2022/11/13 03:52:38;;;;;;;;;;;15.20;93.90;;;;;;5113733;28;20393;-65
2022/11/13 03:55:04;;;;;;;;;;;14.90;93.80;;;;;;5114821;28;19930;-65
2022/11/13 03:57:31;;;;;;;;;;;15.10;93.80;;;;;;5113930;28;19971;-65
2022/11/13 03:59:56;;;;;;;;;;;15.10;93.90;;;;;;5116000;28;19968;-65
2022/11/13 04:02:22;;;;;;;;;;;15.20;94.00;;;;;;5114639;28;20377;-65
2022/11/13 04:04:47;;;;;;;;;;;15.30;94.00;;;;;;5114874;28;19963;-64
2022/11/13 04:07:13;;;;;;;;;;;15.00;93.90;;;;;;5116135;28;19923;-66
2022/11/13 04:09:39;;;;;;;;;;;14.90;94.00;;;;;;5116255;28;19997;-65
2022/11/13 04:12:04;;;;;;;;;;;15.30;94.00;;;;;;5113952;28;19928;-65
2022/11/13 04:14:30;;;;;;;;;;;15.20;94.00;;;;;;5115776;28;19930;-65
2022/11/13 04:16:56;;;;;;;;;;;15.10;94.00;;;;;;5113554;28;19953;-65
2022/11/13 04:19:21;;;;;;;;;;;15.10;94.00;;;;;;5110138;28;19927;-65
2022/11/13 04:21:47;;;;;;;;;;;15.10;93.90;;;;;;5094718;28;19923;-68
2022/11/13 04:24:13;;;;;;;;;;;15.20;94.00;;;;;;5097340;28;20074;-67
2022/11/13 04:26:38;;;;;;;;;;;15.30;94.00;;;;;;5093850;28;19925;-70
2022/11/13 04:29:04;;;;;;;;;;;15.30;94.00;;;;;;5079014;28;19932;-65
2022/11/13 04:31:30;;;;;;;;;;;15.20;94.00;;;;;;5113593;28;20015;-65
2022/11/13 04:33:55;;;;;;;;;;;15.10;94.00;;;;;;5113495;28;19928;-66
2022/11/13 04:36:21;;;;;;;;;;;15.00;93.90;;;;;;5114232;28;20010;-65
2022/11/13 04:38:46;;;;;;;;;;;15.20;94.00;;;;;;5113015;28;19977;-65
2022/11/13 04:43:56;;;;;;;;;;;15.20;94.00;;;;;;5113080;28;19923;-69
2022/11/13 04:46:22;;;;;;;;;;;15.30;94.00;;;;;;5095608;28;19924;-65
2022/11/13 04:48:47;;;;;;;;;;;15.30;94.00;;;;;;5113778;28;20266;-65
2022/11/13 04:51:13;;;;;;;;;;;14.80;93.90;;;;;;5113613;28;20296;-65
2022/11/13 04:53:39;;;;;;;;;;;14.90;93.90;;;;;;5095960;28;19977;-66
2022/11/13 04:56:05;;;;;;;;;;;15.10;94.00;;;;;;5095906;28;19970;-71
2022/11/13 04:58:30;;;;;;;;;;;15.00;94.00;;;;;;5114803;28;19920;-71
2022/11/13 05:00:56;;;;;;;;;;;15.10;94.00;;;;;;5114521;28;19931;-69
2022/11/13 05:03:22;;;;;;;;;;;15.10;94.10;;;;;;5114760;28;20092;-72
2022/11/13 05:05:47;;;;;;;;;;;14.90;94.00;;;;;;5114744;28;20381;-70
2022/11/13 05:08:13;;;;;;;;;;;;;;;;;;5113713;28;19924;-67
2022/11/13 05:10:39;;;;;;;;;;;14.80;94.00;;;;;;5114243;28;19927;-71
2022/11/13 05:13:05;;;;;;;;;;;14.70;94.00;;;;;;5113369;28;20384;-72
2022/11/13 05:15:30;;;;;;;;;;;14.80;94.10;;;;;;5095946;28;19924;-71
2022/11/13 05:17:56;;;;;;;;;;;14.70;94.10;;;;;;5113517;28;19924;-72
2022/11/13 05:20:22;;;;;;;;;;;14.90;94.20;;;;;;5113492;28;20458;-71
2022/11/13 05:22:47;;;;;;;;;;;14.80;94.10;;;;;;5113527;28;20395;-67
2022/11/13 05:25:13;;;;;;;;;;;14.60;94.10;;;;;;5111537;28;20100;-65
2022/11/13 05:27:39;;;;;;;;;;;15.10;94.20;;;;;;5113192;28;19927;-69
2022/11/13 05:30:05;;;;;;;;;;;14.80;94.10;;;;;;5113029;28;19935;-71
2022/11/13 05:32:31;;;;;;;;;;;14.90;94.20;;;;;;5114203;28;19989;-70
2022/11/13 05:34:56;;;;;;;;;;;15.00;94.20;;;;;;5112199;28;19923;-67
2022/11/13 05:37:22;;;;;;;;;;;14.70;94.10;;;;;;5114003;28;20010;-67
2022/11/13 05:39:48;;;;;;;;;;;14.60;94.10;;;;;;5113166;28;19924;-66
2022/11/13 05:42:14;;;;;;;;;;;14.70;94.10;;;;;;5114091;28;19923;-65
2022/11/13 05:44:39;;;;;;;;;;;14.80;94.30;;;;;;5113604;28;20019;-70
2022/11/13 05:47:05;;;;;;;;;;;14.70;94.20;;;;;;5112902;28;19932;-69
2022/11/13 05:49:31;;;;;;;;;;;14.90;94.20;;;;;;5114434;28;19984;-64
2022/11/13 05:51:57;;;;;;;;;;;14.70;94.30;;;;;;5114450;28;19931;-64
2022/11/13 05:54:22;;;;;;;;;;;15.00;94.30;;;;;;5108035;28;20057;-64
2022/11/13 05:56:48;;;;;;;;;;;15.10;94.40;;;;;;5107443;28;19924;-64
2022/11/13 05:59:14;;;;;;;;;;;14.80;94.20;;;;;;5114225;28;20414;-66
2022/11/13 06:01:39;;;;;;;;;;;14.50;94.20;;;;;;5112636;28;19923;-65
2022/11/13 06:04:06;;;;;;;;;;;;;;;;;;5114016;28;19977;-65
2022/11/13 06:06:31;;;;;;;;;;;14.70;94.20;;;;;;5126195;28;19920;-65
2022/11/13 06:08:58;;;;;;;;;;;14.70;94.20;;;;;;5112913;28;20338;-64
2022/11/13 06:11:24;;;;;;;;;;;14.90;94.10;;;;;;5091742;28;19974;-65
2022/11/13 06:13:50;;;;;;;;;;;14.70;94.20;;;;;;5086162;28;19947;-65
2022/11/13 06:16:20;;;;;;;;;;;14.80;94.20;;;;;;5111515;28;19923;-64
2022/11/13 06:18:46;;;;;;;;;;;14.80;94.30;;;;;;5095986;28;19920;-72
2022/11/13 06:21:13;;;;;;;;;;;14.70;94.30;;;;;;5112517;28;20320;-70
2022/11/13 06:23:39;;;;;;;;;;;14.70;94.30;;;;;;5114135;28;20019;-65
2022/11/13 06:26:14;;;;;;;;;;;14.60;94.30;;;;;;5095210;28;19950;-65
2022/11/13 06:28:40;;;;;;;;;;;15.00;94.40;;;;;;5112891;28;20305;-65
2022/11/13 06:31:06;;;;;;;;;;;;;;;;;;5112438;28;19923;-63
2022/11/13 06:33:32;;;;;;;;;;;14.80;94.50;;;;;;5120394;28;19969;-65
2022/11/13 06:36:01;;;;;;;;;;;14.70;94.40;;;;;;5111055;28;19927;-64
2022/11/13 06:38:31;;;;;;;;;;;14.80;94.40;;;;;;5095251;28;19924;-64
2022/11/13 06:40:57;;;;;;;;;;;14.90;94.50;;;;;;5095706;28;19959;-65
2022/11/13 06:43:22;;;;;;;;;;;14.90;94.50;;;;;;5113987;28;19984;-65
2022/11/13 06:45:48;;;;;;;;;;;14.80;94.60;;;;;;5114862;28;19932;-64
2022/11/13 06:48:14;;;;;;;;;;;15.00;94.60;;;;;;5117260;28;19923;-65
2022/11/13 06:50:40;;;;;;;;;;;14.70;94.50;;;;;;5117553;28;19977;-64
2022/11/13 06:53:05;;;;;;;;;;;15.00;94.60;;;;;;5115918;28;19923;-65
2022/11/13 06:55:31;;;;;;;;;;;14.70;94.60;;;;;;5115163;28;19935;-65
2022/11/13 06:57:57;;;;;;;;;;;15.20;94.70;;;;;;5115917;28;19923;-65
2022/11/13 07:00:22;;;;;;;;;;;14.90;94.60;;;;;;5098700;28;19924;-65
2022/11/13 07:02:49;;;;;;;;;;;15.00;94.70;;;;;;5097845;28;19971;-64
2022/11/13 07:05:14;;;;;;;;;;;14.90;94.70;;;;;;5115923;28;19927;-65
2022/11/13 07:07:41;;;;;;;;;;;;;;;;;;5097969;28;19924;-64
2022/11/13 07:10:06;;;;;;;;;;;14.60;94.50;;;;;;5115681;28;19923;-65
2022/11/13 07:12:32;;;;;;;;;;;15.00;94.60;;;;;;5117194;28;19919;-64
2022/11/13 07:14:58;;;;;;;;;;;14.80;94.60;;;;;;5116792;28;19995;-65
2022/11/13 07:17:23;;;;;;;;;;;14.70;94.50;;;;;;5114837;28;20478;-65
2022/11/13 07:19:49;;;;;;;;;;;14.80;94.50;;;;;;5115473;28;20297;-64
2022/11/13 07:22:15;;;;;;;;;;;14.80;94.60;;;;;;5098277;28;19924;-65
2022/11/13 07:24:41;;;;;;;;;;;14.80;94.60;;;;;;5115390;28;19930;-65
2022/11/13 07:27:07;;;;;;;;;;;;;;;;;;5114706;28;20006;-66
2022/11/13 07:29:35;;;;;;;;;;;14.60;94.40;;;;;;5114732;28;20441;-65
2022/11/13 07:32:01;;;;;;;;;;;14.80;94.40;;;;;;5116787;28;19963;-64
2022/11/13 07:34:26;;;;;;;;;;;14.80;94.30;;;;;;5114266;28;19994;-64
2022/11/13 07:36:52;;;;;;;;;;;14.80;94.40;;;;;;5115741;28;19930;-65
2022/11/13 07:39:18;;;;;;;;;;;14.70;94.30;;;;;;5113541;28;19924;-65
2022/11/13 07:41:44;;;;;;;;;;;;;;;;;;5114984;28;19976;-65
2022/11/13 07:44:10;;;;;;;;;;;14.60;94.40;;;;;;5114974;28;19923;-64
2022/11/13 07:46:36;;;;;;;;;;;14.70;94.40;;;;;;5114908;28;20025;-64
2022/11/13 07:49:01;;;;;;;;;;;14.80;94.40;;;;;;5114123;28;19924;-65
2022/11/13 07:51:27;;;;;;;;;;;14.60;94.30;;;;;;5116075;28;19924;-64
2022/11/13 07:53:53;;;;;;;;;;;14.80;94.30;;;;;;5116038;28;19970;-64
2022/11/13 07:56:18;;;;;;;;;;;14.70;94.20;;;;;;5113815;28;19920;-64
2022/11/13 07:58:44;;;;;;;;;;;14.80;94.20;;;;;;5092637;28;19927;-64
2022/11/13 08:01:10;;;;;;;;;;;14.80;94.20;;;;;;5114617;28;19924;-65
2022/11/13 08:03:36;;;;;;;;;;;14.80;94.20;;;;;;5114559;28;20378;-66
2022/11/13 08:06:02;;;;;;;;;;;14.90;94.20;;;;;;5116079;28;19924;-66
2022/11/13 08:08:28;;;;;;;;;;;;;;;;;;5111686;28;19927;-70
2022/11/13 08:10:53;;;;;;;;;;;14.60;94.00;;;;;;5111107;28;19930;-66
2022/11/13 08:13:19;;;;;;;;;;;14.70;94.10;;;;;;5111920;28;20006;-65
2022/11/13 08:15:45;;;;;;;;;;;14.70;94.10;;;;;;5114328;28;19924;-66
2022/11/13 08:18:10;;;;;;;;;;;14.90;93.90;;;;;;5113602;28;19931;-66
2022/11/13 08:20:36;;;;;;;;;;;14.60;94.00;;;;;;5112438;28;19920;-65
2022/11/13 08:23:03;;;;;;;;;;;14.90;94.00;;;;;;5096334;28;19928;-65
2022/11/13 08:25:28;;;;;;;;;;;15.00;94.00;;;;;;5097167;28;19927;-66
2022/11/13 08:27:54;;;;;;;;;;;15.30;94.00;;;;;;5096172;28;19983;-67
2022/11/13 08:30:20;;;;;;;;;;;14.90;93.80;;;;;;5113384;28;19938;-66
2022/11/13 08:32:46;;;;;;;;;;;15.20;93.90;;;;;;5115223;28;19923;-65
2022/11/13 08:35:11;;;;;;;;;;;15.30;93.90;;;;;;5115507;28;19968;-65
2022/11/13 08:37:37;;;;;;;;;;;15.10;93.80;;;;;;5114279;28;19934;-66
2022/11/13 08:40:03;;;;;;;;;;;15.30;93.90;;;;;;5109650;28;20301;-66
2022/11/13 08:42:29;;;;;;;;;;;15.30;93.80;;;;;;5076449;28;20014;-65
2022/11/13 08:44:55;;;;;;;;;;;15.30;93.90;;;;;;5094719;28;19981;-65
2022/11/13 08:47:21;;;;;;;;;;;15.30;93.80;;;;;;5111694;28;19924;-65
2022/11/13 08:49:47;;;;;;;;;;;15.30;93.70;;;;;;5113625;28;19997;-65
2022/11/13 08:52:13;;;;;;;;;;;15.20;93.70;;;;;;5114910;28;19985;-65
2022/11/13 08:54:39;;;;;;;;;;;15.20;93.60;;;;;;5114018;28;19945;-65
2022/11/13 08:57:05;;;;;;;;;;;15.00;93.60;;;;;;5116011;28;19951;-65
2022/11/13 08:59:30;;;;;;;;;;;15.40;93.70;;;;;;5113893;28;19930;-65
2022/11/13 09:01:58;;;;;;;;;;;15.20;93.60;;;;;;5112652;28;19924;-65
2022/11/13 09:04:26;;;;;;;;;;;15.10;93.60;;;;;;5114688;28;19923;-65
2022/11/13 09:06:52;;;;;;;;;;;15.20;93.70;;;;;;5112949;28;19924;-70
2022/11/13 09:09:18;;;;;;;;;;;15.00;93.80;;;;;;5112416;28;19931;-67
2022/11/13 09:11:44;;;;;;;;;;;15.10;93.90;;;;;;5087155;28;20356;-65
2022/11/13 09:14:10;;;;;;;;;;;15.20;93.90;;;;;;5094170;28;19931;-65
2022/11/13 09:16:36;;;;;;;;;;;15.00;93.90;;;;;;5094158;28;19924;-65
2022/11/13 09:19:02;;;;;;;;;;;15.10;94.00;;;;;;5094402;28;19924;-65
2022/11/13 09:21:27;;;;;;;;;;;15.20;94.00;;;;;;5112410;28;20343;-65
2022/11/13 09:23:53;;;;;;;;;;;15.40;94.00;;;;;;5130588;27;19992;-65
2022/11/13 09:26:19;;;;;;;;;;;15.10;94.00;;;;;;5114439;28;19994;-65
2022/11/13 09:28:44;;;;;;;;;;;15.40;94.00;;;;;;5113083;28;19924;-66
2022/11/13 09:31:10;;;;;;;;;;;15.20;94.00;;;;;;5094352;28;19923;-65
2022/11/13 09:33:36;;;;;;;;;;;15.30;94.00;;;;;;5114889;28;19924;-65
2022/11/13 09:36:02;;;;;;;;;;;15.20;94.00;;;;;;5113319;28;19924;-66
2022/11/13 09:38:30;;;;;;;;;;;15.20;94.00;;;;;;5112083;28;19924;-65
2022/11/13 09:40:56;;;;;;;;;;;;;;;;;;5113329;28;19924;-66
2022/11/13 09:43:22;;;;;;;;;;;15.10;94.00;;;;;;5112921;28;19931;-66
2022/11/13 09:45:48;;;;;;;;;;;15.40;94.10;;;;;;5113197;28;19924;-65
2022/11/13 09:48:14;;;;;;;;;;;15.20;94.00;;;;;;5095886;28;20428;-65
2022/11/13 09:50:39;;;;;;;;;;;15.10;94.00;;;;;;5112879;28;20007;-65
2022/11/13 09:53:05;;;;;;;;;;;15.20;94.00;;;;;;5112898;28;19923;-65
2022/11/13 09:55:32;;;;;;;;;;;15.30;94.00;;;;;;5112956;28;19924;-65
2022/11/13 09:58:16;;;;;;;;;;;15.10;94.00;;;;;;5113133;28;20292;-66
2022/11/13 10:00:42;;;;;;;;;;;15.30;94.00;;;;;;5111357;28;19923;-65
2022/11/13 10:03:26;;;;;;;;;;;15.30;94.00;;;;;;5114189;28;19931;-66
2022/11/13 10:06:00;;;;;;;;;;;15.20;93.90;;;;;;5112222;28;19947;-65
2022/11/13 10:08:28;;;;;;;;;;;15.50;93.90;;;;;;5094484;28;19923;-65
2022/11/13 10:11:14;;;;;;;;;;;15.60;94.00;;;;;;5111800;28;20313;-65
2022/11/13 10:13:40;;;;;;;;;;;15.70;94.00;;;;;;5112038;28;19928;-65
2022/11/13 10:16:24;;;;;;;;;;;15.70;94.00;;;;;;5112595;28;19931;-66
2022/11/13 10:18:50;;;;;;;;;;;15.70;94.00;;;;;;5113857;28;19927;-66
2022/11/13 10:21:24;;;;;;;;;;;15.60;93.90;;;;;;5107770;28;20007;-65
2022/11/13 10:23:52;;;;;;;;;;;15.40;93.90;;;;;;5079080;28;19924;-66
2022/11/13 10:26:19;;;;;;;;;;;15.70;93.90;;;;;;5097685;28;19924;-66
2022/11/13 10:28:44;;;;;;;;;;;15.80;94.00;;;;;;5092441;28;19935;-66
2022/11/13 10:31:10;;;;;;;;;;;15.80;93.90;;;;;;5095331;28;20297;-66
2022/11/13 10:33:36;;;;;;;;;;;15.70;93.90;;;;;;5113506;28;20287;-66
2022/11/13 10:36:18;;;;;;;;;;;15.90;93.90;;;;;;5116607;28;19923;-66
2022/11/13 10:39:04;;;;;;;;;;;15.90;93.90;;;;;;5116178;28;20111;-65
2022/11/13 10:41:29;;;;;;;;;;;16.00;93.90;;;;;;5118030;28;19927;-65
2022/11/13 10:43:55;;;;;;;;;;;16.00;93.90;;;;;;5115160;28;19924;-66
2022/11/13 10:46:23;;;;;;;;;;;16.20;93.90;;;;;;5117559;28;19924;-65
2022/11/13 10:48:48;;;;;;;;;;;15.90;93.80;;;;;;5117313;28;20384;-65
2022/11/13 10:51:22;;;;;;;;;;;16.00;93.70;;;;;;5116407;28;19928;-65
2022/11/13 10:53:48;;;;;;;;;;;16.10;93.70;;;;;;5115842;28;19932;-66
2022/11/13 10:56:14;;;;;;;;;;;;;;;;;;5117462;28;19930;-66
2022/11/13 10:58:39;;;;;;;;;;;16.00;93.70;;;;;;5115545;28;19976;-65
2022/11/13 11:01:21;;;;;;;;;;;16.10;93.70;;;;;;5117453;28;20277;-66
2022/11/13 11:03:49;;;;;;;;;;;16.30;93.70;;;;;;5101209;28;20010;-66
2022/11/13 11:06:15;;;;;;;;;;;16.00;93.60;;;;;;5096525;28;19920;-66
2022/11/13 11:08:41;;;;;;;;;;;16.20;93.50;;;;;;5078470;28;19931;-65
2022/11/13 11:14:03;;;;;;;;;;;16.40;93.50;;;;;;5100225;28;19928;-65
2022/11/13 11:16:29;;;;;;;;;;;16.60;93.50;;;;;;5116828;28;19924;-65
2022/11/13 11:18:56;;;;;;;;;;;16.60;93.50;;;;;;5115611;28;19926;-65
2022/11/13 11:21:24;;;;;;;;;;;16.40;93.40;;;;;;5116969;28;19924;-66
2022/11/13 11:23:53;;;;;;;;;;;16.50;93.30;;;;;;5115047;28;20274;-65
2022/11/13 11:26:37;;;;;;;;;;;16.60;93.30;;;;;;5116635;28;20022;-65
2022/11/13 11:29:38;;;;;;;;;;;16.80;93.30;;;;;;5103111;28;19928;-64
2022/11/13 11:32:23;;;;;;;;;;;16.50;93.30;;;;;;5036779;28;19928;-66
2022/11/13 11:34:49;;;;;;;;;;;;;;;;;;5058447;28;20491;-68
2022/11/13 11:37:15;;;;;;;;;;;16.80;93.30;;;;;;5039686;28;20409;-68
2022/11/13 11:39:52;;;;;;;;;;;16.80;93.30;;;;;;5037300;28;19925;-67
2022/11/13 11:42:26;;;;;;;;;;;16.90;93.30;;;;;;5036108;28;20385;-68
2022/11/13 11:44:55;;;;;;;;;;;17.10;93.20;;;;;;5065585;28;19928;-69
2022/11/13 11:47:21;;;;;;;;;;;17.00;93.20;;;;;;5057137;28;19924;-68
2022/11/13 11:49:46;;;;;;;;;;;17.00;93.20;;;;;;5057063;28;19947;-67
2022/11/13 11:52:31;;;;;;;;;;;17.10;93.10;;;;;;5073250;28;19924;-68
2022/11/13 11:55:17;;;;;;;;;;;17.00;93.10;;;;;;5058549;28;19931;-68
2022/11/13 11:57:56;;;;;;;;;;;17.00;93.00;;;;;;5034546;28;20008;-68
2022/11/13 12:00:22;;;;;;;;;;;17.20;93.00;;;;;;5056403;28;19971;-67
2022/11/13 12:02:56;;;;;;;;;;;17.30;93.00;;;;;;5056481;28;19986;-68
2022/11/13 12:05:23;;;;;;;;;;;17.10;92.90;;;;;;5076317;28;20393;-68
2022/11/13 12:07:58;;;;;;;;;;;17.10;92.90;;;;;;5077374;28;20427;-68
2022/11/13 12:10:37;;;;;;;;;;;17.30;93.00;;;;;;5077442;28;19928;-68
2022/11/13 12:13:11;;;;;;;;;;;17.20;92.90;;;;;;5077230;28;19924;-67
2022/11/13 12:15:37;;;;;;;;;;;17.30;92.80;;;;;;5072315;28;19975;-67
2022/11/13 12:18:13;;;;;;;;;;;17.50;92.90;;;;;;5057468;28;19924;-72
2022/11/13 12:20:57;;;;;;;;;;;17.30;92.70;;;;;;5057369;28;20352;-68
2022/11/13 12:23:35;;;;;;;;;;;17.30;92.80;;;;;;5040676;28;19970;-71
2022/11/13 12:26:03;;;;;;;;;;;17.00;92.70;;;;;;5061619;28;20444;-73
2022/11/13 12:28:41;;;;;;;;;;;17.00;92.70;;;;;;5076367;28;19931;-71
2022/11/13 12:31:27;;;;;;;;;;;17.20;92.80;;;;;;5076690;28;19924;-67
2022/11/13 12:34:03;;;;;;;;;;;16.90;92.80;;;;;;5093462;28;19928;-67
2022/11/13 12:36:29;;;;;;;;;;;17.10;92.80;;;;;;5092619;28;19979;-71
2022/11/13 12:39:00;;;;;;;;;;;17.20;92.90;;;;;;5096144;28;19927;-72
2022/11/13 12:41:25;;;;;;;;;;;17.10;92.90;;;;;;5095367;28;19970;-71
2022/11/13 12:44:00;;;;;;;;;;;17.00;92.90;;;;;;5113746;28;19978;-69
2022/11/13 12:46:33;;;;;;;;;;;17.00;92.90;;;;;;5112841;28;20269;-66
2022/11/13 12:48:59;;;;;;;;;;;17.10;93.10;;;;;;5114173;28;20273;-66
2022/11/13 12:51:35;;;;;;;;;;;17.00;93.10;;;;;;5114932;28;19930;-67
2022/11/13 12:54:01;;;;;;;;;;;17.00;93.10;;;;;;5097129;28;20308;-67
2022/11/13 12:56:27;;;;;;;;;;;16.80;93.00;;;;;;5112606;28;20026;-67
2022/11/13 12:58:59;;;;;;;;;;;17.00;93.00;;;;;;5114018;28;19924;-67
2022/11/13 13:01:25;;;;;;;;;;;16.80;93.00;;;;;;5113501;28;19927;-67
2022/11/13 13:03:53;;;;;;;;;;;17.00;93.00;;;;;;5096854;28;19923;-67
2022/11/13 13:06:22;;;;;;;;;;;16.70;92.90;;;;;;5113127;28;19924;-67
2022/11/13 13:08:52;;;;;;;;;;;16.70;92.90;;;;;;5112370;28;20012;-67
2022/11/13 13:11:18;;;;;;;;;;;17.00;93.00;;;;;;5113451;28;19924;-66
2022/11/13 13:13:46;;;;;;;;;;;16.50;93.00;;;;;;5113736;28;19927;-66
2022/11/13 13:16:18;;;;;;;;;;;16.70;93.00;;;;;;5112905;28;19923;-66
2022/11/13 13:18:43;;;;;;;;;;;16.70;93.10;;;;;;5095360;28;20017;-67
2022/11/13 13:21:10;;;;;;;;;;;16.50;93.10;;;;;;5114690;28;20027;-68
2022/11/13 13:23:37;;;;;;;;;;;16.60;93.20;;;;;;5114759;28;19924;-70
2022/11/13 13:26:04;;;;;;;;;;;16.80;93.20;;;;;;5113522;28;19924;-65
2022/11/13 13:28:29;;;;;;;;;;;16.80;93.10;;;;;;5113382;28;19962;-65
2022/11/13 13:31:04;;;;;;;;;;;16.80;93.20;;;;;;5112488;28;19974;-66
2022/11/13 13:33:43;;;;;;;;;;;16.80;93.20;;;;;;5113748;28;19931;-67
2022/11/13 13:36:14;;;;;;;;;;;16.60;93.10;;;;;;5114446;28;19924;-65
2022/11/13 13:38:43;;;;;;;;;;;16.40;93.10;;;;;;5095049;28;19923;-65
2022/11/13 13:41:09;;;;;;;;;;;16.70;93.30;;;;;;5112490;28;19930;-67
2022/11/13 13:43:35;;;;;;;;;;;;;;;;;;5112220;28;20428;-68
2022/11/13 13:46:00;;;;;;;;;;;16.70;93.30;;;;;;5111959;28;19924;-65
2022/11/13 13:48:27;;;;;;;;;;;16.60;93.30;;;;;;5113027;28;19924;-65
2022/11/13 13:50:53;;;;;;;;;;;16.50;93.30;;;;;;5113362;28;20412;-66
2022/11/13 13:53:24;;;;;;;;;;;16.60;93.40;;;;;;5112277;28;19967;-66
2022/11/13 13:55:53;;;;;;;;;;;16.40;93.40;;;;;;5117425;28;19963;-65
2022/11/13 13:58:23;;;;;;;;;;;16.60;93.40;;;;;;5118521;27;19924;-65
2022/11/13 14:00:56;;;;;;;;;;;16.40;93.40;;;;;;5117054;28;20300;-66
2022/11/13 14:03:23;;;;;;;;;;;16.30;93.40;;;;;;5117333;28;19931;-66
2022/11/13 14:05:49;;;;;;;;;;;16.70;93.40;;;;;;5098931;28;20288;-66
2022/11/13 14:08:19;;;;;;;;;;;16.60;93.50;;;;;;5117053;28;19928;-65
2022/11/13 14:10:48;;;;;;;;;;;;;;;;;;5116364;28;20305;-67
2022/11/13 14:13:21;;;;;;;;;;;16.60;93.50;;;;;;5116854;27;20066;-67
2022/11/13 14:15:47;;;;;;;;;;;16.50;93.50;;;;;;5115976;28;20377;-66
2022/11/13 14:18:13;;;;;;;;;;;;;;;;;;5099602;28;19924;-67
2022/11/13 14:20:38;;;;;;;;;;;16.50;93.60;;;;;;5114104;28;19985;-67
2022/11/13 14:23:04;;;;;;;;;;;16.60;93.60;;;;;;5100866;28;19932;-66
2022/11/13 14:25:30;;;;;;;;;;;16.40;93.60;;;;;;5115056;28;19939;-66
2022/11/13 14:27:55;;;;;;;;;;;16.60;93.60;;;;;;5117061;28;19996;-65